sensor_id;sensor_type;location;lat;lon;timestamp;P1;durP1;ratioP1;P2;durP2;ratioP2
20986;SDS011;10652;50.306;8.570;2024-01-25T00:01:01;20.25;;;3.78;;
20986;SDS011;10652;50.306;8.570;2024-01-25T00:05:03;19.33;;;4.18;;
20986;SDS011;10652;50.306;8.570;2024-01-25T00:09:06;20.45;;;3.55;;
20986;SDS011;10652;50.306;8.570;2024-01-25T00:13:10;26.60;;;4.13;;
20986;SDS011;10652;50.306;8.570;2024-01-25T00:17:12;21.67;;;4.13;;
20986;SDS011;10652;50.306;8.570;2024-01-25T00:21:14;16.83;;;3.70;;
20986;SDS011;10652;50.306;8.570;2024-01-25T00:25:16;15.32;;;3.30;;
20986;SDS011;10652;50.306;8.570;2024-01-25T00:29:18;22.30;;;3.78;;
20986;SDS011;10652;50.306;8.570;2024-01-25T00:33:20;20.48;;;3.50;;
20986;SDS011;10652;50.306;8.570;2024-01-25T00:37:23;21.50;;;4.00;;
20986;SDS011;10652;50.306;8.570;2024-01-25T00:41:25;18.20;;;3.40;;
20986;SDS011;10652;50.306;8.570;2024-01-25T00:45:30;20.20;;;4.07;;
20986;SDS011;10652;50.306;8.570;2024-01-25T00:49:32;22.33;;;4.00;;
20986;SDS011;10652;50.306;8.570;2024-01-25T00:53:35;20.25;;;3.83;;
20986;SDS011;10652;50.306;8.570;2024-01-25T00:57:37;20.10;;;3.22;;
20986;SDS011;10652;50.306;8.570;2024-01-25T01:01:40;20.60;;;3.53;;
20986;SDS011;10652;50.306;8.570;2024-01-25T01:05:46;21.33;;;3.70;;
20986;SDS011;10652;50.306;8.570;2024-01-25T01:09:49;20.75;;;4.10;;
20986;SDS011;10652;50.306;8.570;2024-01-25T01:13:51;19.65;;;3.65;;
20986;SDS011;10652;50.306;8.570;2024-01-25T01:17:53;22.80;;;4.40;;
20986;SDS011;10652;50.306;8.570;2024-01-25T01:21:55;19.48;;;3.92;;
20986;SDS011;10652;50.306;8.570;2024-01-25T01:25:57;20.27;;;4.22;;
20986;SDS011;10652;50.306;8.570;2024-01-25T01:29:59;20.02;;;3.55;;
20986;SDS011;10652;50.306;8.570;2024-01-25T01:34:01;20.25;;;3.47;;
20986;SDS011;10652;50.306;8.570;2024-01-25T01:38:04;19.95;;;3.85;;
20986;SDS011;10652;50.306;8.570;2024-01-25T01:42:06;20.88;;;3.55;;
20986;SDS011;10652;50.306;8.570;2024-01-25T01:46:12;17.55;;;3.35;;
20986;SDS011;10652;50.306;8.570;2024-01-25T01:50:30;18.85;;;4.22;;
20986;SDS011;10652;50.306;8.570;2024-01-25T01:54:32;23.65;;;3.75;;
20986;SDS011;10652;50.306;8.570;2024-01-25T01:58:35;18.60;;;3.90;;
20986;SDS011;10652;50.306;8.570;2024-01-25T02:02:38;18.02;;;3.42;;
20986;SDS011;10652;50.306;8.570;2024-01-25T02:06:40;21.15;;;4.20;;
20986;SDS011;10652;50.306;8.570;2024-01-25T02:10:44;25.90;;;4.25;;
20986;SDS011;10652;50.306;8.570;2024-01-25T02:14:46;24.30;;;3.70;;
20986;SDS011;10652;50.306;8.570;2024-01-25T02:18:48;23.33;;;4.97;;
20986;SDS011;10652;50.306;8.570;2024-01-25T02:22:50;24.17;;;4.40;;
20986;SDS011;10652;50.306;8.570;2024-01-25T02:26:52;19.05;;;3.95;;
20986;SDS011;10652;50.306;8.570;2024-01-25T02:30:56;20.80;;;4.18;;
20986;SDS011;10652;50.306;8.570;2024-01-25T02:34:59;19.90;;;4.07;;
20986;SDS011;10652;50.306;8.570;2024-01-25T02:39:01;20.27;;;3.78;;
20986;SDS011;10652;50.306;8.570;2024-01-25T02:43:04;19.10;;;3.67;;
20986;SDS011;10652;50.306;8.570;2024-01-25T02:47:06;22.40;;;3.97;;
20986;SDS011;10652;50.306;8.570;2024-01-25T02:51:08;18.50;;;4.75;;
20986;SDS011;10652;50.306;8.570;2024-01-25T02:55:10;21.58;;;4.63;;
20986;SDS011;10652;50.306;8.570;2024-01-25T02:59:12;21.95;;;4.65;;
20986;SDS011;10652;50.306;8.570;2024-01-25T03:03:15;22.83;;;4.13;;
20986;SDS011;10652;50.306;8.570;2024-01-25T03:07:18;22.45;;;4.40;;
20986;SDS011;10652;50.306;8.570;2024-01-25T03:11:20;23.38;;;4.18;;
20986;SDS011;10652;50.306;8.570;2024-01-25T03:15:22;26.33;;;5.85;;
20986;SDS011;10652;50.306;8.570;2024-01-25T03:19:24;23.55;;;3.90;;
20986;SDS011;10652;50.306;8.570;2024-01-25T03:23:28;21.70;;;3.80;;
20986;SDS011;10652;50.306;8.570;2024-01-25T03:27:30;22.90;;;4.28;;
20986;SDS011;10652;50.306;8.570;2024-01-25T03:31:32;26.33;;;4.25;;
20986;SDS011;10652;50.306;8.570;2024-01-25T03:35:35;25.92;;;4.82;;
20986;SDS011;10652;50.306;8.570;2024-01-25T03:39:37;22.73;;;3.85;;
20986;SDS011;10652;50.306;8.570;2024-01-25T03:43:39;20.35;;;4.10;;
20986;SDS011;10652;50.306;8.570;2024-01-25T03:47:45;30.05;;;5.15;;
20986;SDS011;10652;50.306;8.570;2024-01-25T03:51:48;23.38;;;4.30;;
20986;SDS011;10652;50.306;8.570;2024-01-25T03:55:51;20.02;;;3.92;;
20986;SDS011;10652;50.306;8.570;2024-01-25T03:59:53;22.25;;;4.18;;
20986;SDS011;10652;50.306;8.570;2024-01-25T04:03:55;29.75;;;4.38;;
20986;SDS011;10652;50.306;8.570;2024-01-25T04:07:57;26.70;;;4.47;;
20986;SDS011;10652;50.306;8.570;2024-01-25T04:12:00;25.63;;;4.70;;
20986;SDS011;10652;50.306;8.570;2024-01-25T04:16:02;21.60;;;4.28;;
20986;SDS011;10652;50.306;8.570;2024-01-25T04:20:04;22.80;;;4.40;;
20986;SDS011;10652;50.306;8.570;2024-01-25T04:24:07;20.73;;;4.03;;
20986;SDS011;10652;50.306;8.570;2024-01-25T04:28:09;25.52;;;4.97;;
20986;SDS011;10652;50.306;8.570;2024-01-25T04:32:12;26.92;;;4.60;;
20986;SDS011;10652;50.306;8.570;2024-01-25T04:36:14;23.90;;;4.55;;
20986;SDS011;10652;50.306;8.570;2024-01-25T04:40:16;25.13;;;4.28;;
20986;SDS011;10652;50.306;8.570;2024-01-25T04:44:19;20.20;;;4.32;;
20986;SDS011;10652;50.306;8.570;2024-01-25T04:48:21;25.90;;;5.90;;
20986;SDS011;10652;50.306;8.570;2024-01-25T04:52:23;25.83;;;5.05;;
20986;SDS011;10652;50.306;8.570;2024-01-25T04:56:26;31.92;;;7.72;;
20986;SDS011;10652;50.306;8.570;2024-01-25T05:00:29;27.77;;;5.90;;
20986;SDS011;10652;50.306;8.570;2024-01-25T05:04:31;27.48;;;6.03;;
20986;SDS011;10652;50.306;8.570;2024-01-25T05:08:33;33.20;;;6.43;;
20986;SDS011;10652;50.306;8.570;2024-01-25T05:12:36;23.83;;;5.97;;
20986;SDS011;10652;50.306;8.570;2024-01-25T05:16:38;24.30;;;5.40;;
20986;SDS011;10652;50.306;8.570;2024-01-25T05:20:40;30.30;;;5.90;;
20986;SDS011;10652;50.306;8.570;2024-01-25T05:24:42;29.48;;;6.65;;
20986;SDS011;10652;50.306;8.570;2024-01-25T05:28:44;21.92;;;4.72;;
20986;SDS011;10652;50.306;8.570;2024-01-25T05:32:46;31.13;;;5.68;;
20986;SDS011;10652;50.306;8.570;2024-01-25T05:36:51;23.27;;;4.75;;
20986;SDS011;10652;50.306;8.570;2024-01-25T05:40:53;27.25;;;7.68;;
20986;SDS011;10652;50.306;8.570;2024-01-25T05:44:55;27.33;;;6.47;;
20986;SDS011;10652;50.306;8.570;2024-01-25T05:48:57;28.10;;;5.78;;
20986;SDS011;10652;50.306;8.570;2024-01-25T05:52:59;26.50;;;6.20;;
20986;SDS011;10652;50.306;8.570;2024-01-25T05:57:01;23.35;;;6.97;;
20986;SDS011;10652;50.306;8.570;2024-01-25T06:01:06;30.30;;;6.13;;
20986;SDS011;10652;50.306;8.570;2024-01-25T06:05:08;26.10;;;5.72;;
20986;SDS011;10652;50.306;8.570;2024-01-25T06:09:11;25.40;;;5.40;;
20986;SDS011;10652;50.306;8.570;2024-01-25T06:13:15;22.25;;;5.43;;
20986;SDS011;10652;50.306;8.570;2024-01-25T06:17:17;24.45;;;5.43;;
20986;SDS011;10652;50.306;8.570;2024-01-25T06:21:19;27.63;;;5.10;;
20986;SDS011;10652;50.306;8.570;2024-01-25T06:25:21;27.27;;;5.18;;
20986;SDS011;10652;50.306;8.570;2024-01-25T06:29:24;24.80;;;5.85;;
20986;SDS011;10652;50.306;8.570;2024-01-25T06:33:26;27.55;;;6.18;;
20986;SDS011;10652;50.306;8.570;2024-01-25T06:37:28;23.13;;;5.53;;
20986;SDS011;10652;50.306;8.570;2024-01-25T06:41:30;27.85;;;5.57;;
20986;SDS011;10652;50.306;8.570;2024-01-25T06:45:32;32.22;;;6.38;;
20986;SDS011;10652;50.306;8.570;2024-01-25T06:49:35;29.90;;;6.05;;
20986;SDS011;10652;50.306;8.570;2024-01-25T06:53:37;28.67;;;5.90;;
20986;SDS011;10652;50.306;8.570;2024-01-25T06:57:39;27.70;;;5.82;;
20986;SDS011;10652;50.306;8.570;2024-01-25T07:01:41;30.50;;;5.82;;
20986;SDS011;10652;50.306;8.570;2024-01-25T07:05:44;30.33;;;5.70;;
20986;SDS011;10652;50.306;8.570;2024-01-25T07:09:46;30.75;;;5.75;;
20986;SDS011;10652;50.306;8.570;2024-01-25T07:13:48;22.45;;;5.50;;
20986;SDS011;10652;50.306;8.570;2024-01-25T07:17:51;22.88;;;5.05;;
20986;SDS011;10652;50.306;8.570;2024-01-25T07:21:53;24.95;;;5.45;;
20986;SDS011;10652;50.306;8.570;2024-01-25T07:25:55;25.38;;;5.07;;
20986;SDS011;10652;50.306;8.570;2024-01-25T07:29:57;25.40;;;6.18;;
20986;SDS011;10652;50.306;8.570;2024-01-25T07:33:59;27.58;;;6.25;;
20986;SDS011;10652;50.306;8.570;2024-01-25T07:38:02;25.92;;;5.82;;
20986;SDS011;10652;50.306;8.570;2024-01-25T07:42:04;27.27;;;5.50;;
20986;SDS011;10652;50.306;8.570;2024-01-25T07:46:06;24.25;;;6.47;;
20986;SDS011;10652;50.306;8.570;2024-01-25T07:50:09;25.40;;;6.75;;
20986;SDS011;10652;50.306;8.570;2024-01-25T07:54:12;33.25;;;12.15;;
20986;SDS011;10652;50.306;8.570;2024-01-25T07:58:15;24.75;;;6.40;;
20986;SDS011;10652;50.306;8.570;2024-01-25T08:02:17;26.02;;;5.65;;
20986;SDS011;10652;50.306;8.570;2024-01-25T08:06:22;29.98;;;7.00;;
20986;SDS011;10652;50.306;8.570;2024-01-25T08:10:24;24.83;;;6.95;;
20986;SDS011;10652;50.306;8.570;2024-01-25T08:14:27;29.13;;;7.22;;
20986;SDS011;10652;50.306;8.570;2024-01-25T08:18:29;28.30;;;7.15;;
20986;SDS011;10652;50.306;8.570;2024-01-25T08:22:33;29.67;;;5.93;;
20986;SDS011;10652;50.306;8.570;2024-01-25T08:26:35;26.15;;;5.70;;
20986;SDS011;10652;50.306;8.570;2024-01-25T08:30:37;25.13;;;5.03;;
20986;SDS011;10652;50.306;8.570;2024-01-25T08:34:40;22.63;;;5.78;;
20986;SDS011;10652;50.306;8.570;2024-01-25T08:38:42;25.13;;;5.72;;
20986;SDS011;10652;50.306;8.570;2024-01-25T08:42:44;29.20;;;5.30;;
20986;SDS011;10652;50.306;8.570;2024-01-25T08:46:46;24.85;;;6.22;;
20986;SDS011;10652;50.306;8.570;2024-01-25T08:50:48;23.38;;;5.30;;
20986;SDS011;10652;50.306;8.570;2024-01-25T08:54:55;26.13;;;4.80;;
20986;SDS011;10652;50.306;8.570;2024-01-25T08:58:57;20.13;;;5.03;;
20986;SDS011;10652;50.306;8.570;2024-01-25T09:02:59;25.20;;;5.47;;
20986;SDS011;10652;50.306;8.570;2024-01-25T09:07:01;20.45;;;4.82;;
20986;SDS011;10652;50.306;8.570;2024-01-25T09:11:04;19.23;;;4.95;;
20986;SDS011;10652;50.306;8.570;2024-01-25T09:15:06;23.77;;;5.45;;
20986;SDS011;10652;50.306;8.570;2024-01-25T09:19:10;27.23;;;5.35;;
20986;SDS011;10652;50.306;8.570;2024-01-25T09:23:15;23.00;;;5.45;;
20986;SDS011;10652;50.306;8.570;2024-01-25T09:27:18;19.83;;;4.95;;
20986;SDS011;10652;50.306;8.570;2024-01-25T09:31:21;23.98;;;5.43;;
20986;SDS011;10652;50.306;8.570;2024-01-25T09:35:24;30.50;;;6.25;;
20986;SDS011;10652;50.306;8.570;2024-01-25T09:39:26;25.17;;;5.63;;
20986;SDS011;10652;50.306;8.570;2024-01-25T09:43:29;22.75;;;5.43;;
20986;SDS011;10652;50.306;8.570;2024-01-25T09:47:31;27.05;;;4.82;;
20986;SDS011;10652;50.306;8.570;2024-01-25T09:51:38;30.25;;;5.88;;
20986;SDS011;10652;50.306;8.570;2024-01-25T09:55:42;24.67;;;5.05;;
20986;SDS011;10652;50.306;8.570;2024-01-25T09:59:49;20.93;;;5.50;;
20986;SDS011;10652;50.306;8.570;2024-01-25T10:03:56;23.98;;;4.55;;
20986;SDS011;10652;50.306;8.570;2024-01-25T10:07:59;27.27;;;5.43;;
20986;SDS011;10652;50.306;8.570;2024-01-25T10:12:03;16.73;;;5.07;;
20986;SDS011;10652;50.306;8.570;2024-01-25T10:16:11;23.35;;;6.20;;
20986;SDS011;10652;50.306;8.570;2024-01-25T10:20:14;22.38;;;6.50;;
20986;SDS011;10652;50.306;8.570;2024-01-25T10:24:18;33.08;;;7.00;;
20986;SDS011;10652;50.306;8.570;2024-01-25T10:28:20;23.65;;;5.03;;
20986;SDS011;10652;50.306;8.570;2024-01-25T10:32:22;24.90;;;5.68;;
20986;SDS011;10652;50.306;8.570;2024-01-25T10:36:28;35.50;;;10.30;;
20986;SDS011;10652;50.306;8.570;2024-01-25T10:40:30;28.85;;;8.40;;
20986;SDS011;10652;50.306;8.570;2024-01-25T10:44:33;27.95;;;6.55;;
20986;SDS011;10652;50.306;8.570;2024-01-25T10:48:35;25.33;;;5.78;;
20986;SDS011;10652;50.306;8.570;2024-01-25T10:52:39;21.27;;;3.92;;
20986;SDS011;10652;50.306;8.570;2024-01-25T10:56:43;25.55;;;5.25;;
20986;SDS011;10652;50.306;8.570;2024-01-25T11:00:50;27.83;;;5.63;;
20986;SDS011;10652;50.306;8.570;2024-01-25T11:04:54;16.05;;;4.20;;
20986;SDS011;10652;50.306;8.570;2024-01-25T11:09:04;25.40;;;6.60;;
20986;SDS011;10652;50.306;8.570;2024-01-25T11:13:13;16.67;;;4.10;;
20986;SDS011;10652;50.306;8.570;2024-01-25T11:17:20;20.25;;;5.57;;
20986;SDS011;10652;50.306;8.570;2024-01-25T11:21:25;19.53;;;3.70;;
20986;SDS011;10652;50.306;8.570;2024-01-25T11:25:29;16.00;;;3.83;;
20986;SDS011;10652;50.306;8.570;2024-01-25T11:29:32;18.42;;;3.40;;
20986;SDS011;10652;50.306;8.570;2024-01-25T11:33:34;17.25;;;3.20;;
20986;SDS011;10652;50.306;8.570;2024-01-25T11:37:39;17.08;;;3.30;;
20986;SDS011;10652;50.306;8.570;2024-01-25T11:41:42;19.60;;;3.72;;
20986;SDS011;10652;50.306;8.570;2024-01-25T11:45:46;17.67;;;3.53;;
20986;SDS011;10652;50.306;8.570;2024-01-25T11:49:48;15.20;;;3.90;;
20986;SDS011;10652;50.306;8.570;2024-01-25T11:53:51;15.23;;;4.45;;
20986;SDS011;10652;50.306;8.570;2024-01-25T11:57:53;18.02;;;3.55;;
20986;SDS011;10652;50.306;8.570;2024-01-25T12:01:55;18.92;;;3.60;;
20986;SDS011;10652;50.306;8.570;2024-01-25T12:05:58;15.45;;;3.72;;
20986;SDS011;10652;50.306;8.570;2024-01-25T12:14:07;13.48;;;3.00;;
20986;SDS011;10652;50.306;8.570;2024-01-25T12:18:10;12.65;;;3.35;;
20986;SDS011;10652;50.306;8.570;2024-01-25T12:22:19;14.80;;;3.58;;
20986;SDS011;10652;50.306;8.570;2024-01-25T12:26:21;18.55;;;3.92;;
20986;SDS011;10652;50.306;8.570;2024-01-25T12:30:24;14.43;;;2.97;;
20986;SDS011;10652;50.306;8.570;2024-01-25T12:34:26;15.40;;;3.90;;
20986;SDS011;10652;50.306;8.570;2024-01-25T12:38:28;18.65;;;4.45;;
20986;SDS011;10652;50.306;8.570;2024-01-25T12:42:33;16.10;;;3.17;;
20986;SDS011;10652;50.306;8.570;2024-01-25T12:46:35;15.02;;;3.10;;
20986;SDS011;10652;50.306;8.570;2024-01-25T12:50:37;13.98;;;2.90;;
20986;SDS011;10652;50.306;8.570;2024-01-25T12:54:40;13.82;;;3.38;;
20986;SDS011;10652;50.306;8.570;2024-01-25T12:58:43;16.45;;;3.40;;
20986;SDS011;10652;50.306;8.570;2024-01-25T13:02:45;17.33;;;3.50;;
20986;SDS011;10652;50.306;8.570;2024-01-25T13:06:48;14.25;;;3.22;;
20986;SDS011;10652;50.306;8.570;2024-01-25T13:10:53;16.42;;;3.10;;
20986;SDS011;10652;50.306;8.570;2024-01-25T13:14:56;16.45;;;3.42;;
20986;SDS011;10652;50.306;8.570;2024-01-25T13:18:58;15.93;;;3.40;;
20986;SDS011;10652;50.306;8.570;2024-01-25T13:23:00;17.35;;;3.70;;
20986;SDS011;10652;50.306;8.570;2024-01-25T13:27:02;20.58;;;4.07;;
20986;SDS011;10652;50.306;8.570;2024-01-25T13:31:05;21.10;;;5.72;;
20986;SDS011;10652;50.306;8.570;2024-01-25T13:35:07;18.27;;;4.38;;
20986;SDS011;10652;50.306;8.570;2024-01-25T13:39:09;14.82;;;3.72;;
20986;SDS011;10652;50.306;8.570;2024-01-25T13:43:12;17.25;;;3.70;;
20986;SDS011;10652;50.306;8.570;2024-01-25T13:47:14;10.50;;;2.80;;
20986;SDS011;10652;50.306;8.570;2024-01-25T13:51:16;12.23;;;3.90;;
20986;SDS011;10652;50.306;8.570;2024-01-25T13:55:18;14.52;;;3.13;;
20986;SDS011;10652;50.306;8.570;2024-01-25T13:59:20;18.35;;;3.80;;
20986;SDS011;10652;50.306;8.570;2024-01-25T14:03:22;18.23;;;3.90;;
20986;SDS011;10652;50.306;8.570;2024-01-25T14:07:24;13.35;;;2.95;;
20986;SDS011;10652;50.306;8.570;2024-01-25T14:11:27;18.75;;;3.50;;
20986;SDS011;10652;50.306;8.570;2024-01-25T14:15:29;17.08;;;3.67;;
20986;SDS011;10652;50.306;8.570;2024-01-25T14:19:31;13.85;;;3.65;;
20986;SDS011;10652;50.306;8.570;2024-01-25T14:23:34;17.30;;;5.13;;
20986;SDS011;10652;50.306;8.570;2024-01-25T14:27:39;18.13;;;6.35;;
20986;SDS011;10652;50.306;8.570;2024-01-25T14:31:42;15.38;;;3.97;;
20986;SDS011;10652;50.306;8.570;2024-01-25T14:35:44;15.38;;;3.15;;
20986;SDS011;10652;50.306;8.570;2024-01-25T14:39:46;11.48;;;3.22;;
20986;SDS011;10652;50.306;8.570;2024-01-25T14:44:08;12.80;;;2.90;;
20986;SDS011;10652;50.306;8.570;2024-01-25T14:48:12;13.73;;;2.75;;
20986;SDS011;10652;50.306;8.570;2024-01-25T14:52:14;11.55;;;2.47;;
20986;SDS011;10652;50.306;8.570;2024-01-25T14:56:19;12.80;;;3.03;;
20986;SDS011;10652;50.306;8.570;2024-01-25T15:00:21;14.82;;;3.80;;
20986;SDS011;10652;50.306;8.570;2024-01-25T15:04:23;15.43;;;3.20;;
20986;SDS011;10652;50.306;8.570;2024-01-25T15:08:31;14.27;;;2.88;;
20986;SDS011;10652;50.306;8.570;2024-01-25T15:12:33;15.35;;;2.78;;
20986;SDS011;10652;50.306;8.570;2024-01-25T15:16:37;18.20;;;3.20;;
20986;SDS011;10652;50.306;8.570;2024-01-25T15:20:39;14.68;;;3.22;;
20986;SDS011;10652;50.306;8.570;2024-01-25T15:24:41;14.90;;;3.60;;
20986;SDS011;10652;50.306;8.570;2024-01-25T15:28:44;17.02;;;3.50;;
20986;SDS011;10652;50.306;8.570;2024-01-25T15:32:47;18.95;;;4.22;;
20986;SDS011;10652;50.306;8.570;2024-01-25T15:36:49;16.52;;;4.25;;
20986;SDS011;10652;50.306;8.570;2024-01-25T15:40:52;16.30;;;3.72;;
20986;SDS011;10652;50.306;8.570;2024-01-25T15:44:54;16.13;;;3.00;;
20986;SDS011;10652;50.306;8.570;2024-01-25T15:48:56;17.30;;;3.83;;
20986;SDS011;10652;50.306;8.570;2024-01-25T15:52:59;14.02;;;4.10;;
20986;SDS011;10652;50.306;8.570;2024-01-25T15:57:01;21.08;;;5.78;;
20986;SDS011;10652;50.306;8.570;2024-01-25T16:01:03;21.15;;;4.90;;
20986;SDS011;10652;50.306;8.570;2024-01-25T16:05:05;21.45;;;4.35;;
20986;SDS011;10652;50.306;8.570;2024-01-25T16:09:07;18.02;;;6.20;;
20986;SDS011;10652;50.306;8.570;2024-01-25T16:13:09;16.77;;;4.05;;
20986;SDS011;10652;50.306;8.570;2024-01-25T16:17:11;18.40;;;4.43;;
20986;SDS011;10652;50.306;8.570;2024-01-25T16:21:16;16.08;;;3.97;;
20986;SDS011;10652;50.306;8.570;2024-01-25T16:25:19;17.73;;;4.85;;
20986;SDS011;10652;50.306;8.570;2024-01-25T16:29:22;15.00;;;3.80;;
20986;SDS011;10652;50.306;8.570;2024-01-25T16:33:24;19.98;;;3.83;;
20986;SDS011;10652;50.306;8.570;2024-01-25T16:37:27;15.52;;;4.50;;
20986;SDS011;10652;50.306;8.570;2024-01-25T16:41:29;16.73;;;3.90;;
20986;SDS011;10652;50.306;8.570;2024-01-25T16:45:32;18.30;;;4.40;;
20986;SDS011;10652;50.306;8.570;2024-01-25T16:49:34;16.80;;;3.78;;
20986;SDS011;10652;50.306;8.570;2024-01-25T16:53:37;21.67;;;4.93;;
20986;SDS011;10652;50.306;8.570;2024-01-25T16:57:39;15.75;;;4.05;;
20986;SDS011;10652;50.306;8.570;2024-01-25T17:01:42;16.88;;;3.85;;
20986;SDS011;10652;50.306;8.570;2024-01-25T17:05:44;19.50;;;4.88;;
20986;SDS011;10652;50.306;8.570;2024-01-25T17:09:46;20.83;;;4.43;;
20986;SDS011;10652;50.306;8.570;2024-01-25T17:13:48;18.90;;;4.90;;
20986;SDS011;10652;50.306;8.570;2024-01-25T17:17:50;18.17;;;5.80;;
20986;SDS011;10652;50.306;8.570;2024-01-25T17:21:53;18.90;;;6.30;;
20986;SDS011;10652;50.306;8.570;2024-01-25T17:25:55;18.58;;;6.47;;
20986;SDS011;10652;50.306;8.570;2024-01-25T17:29:57;25.27;;;7.10;;
20986;SDS011;10652;50.306;8.570;2024-01-25T17:33:59;34.03;;;12.38;;
20986;SDS011;10652;50.306;8.570;2024-01-25T17:38:02;23.25;;;8.98;;
20986;SDS011;10652;50.306;8.570;2024-01-25T17:42:04;21.95;;;9.02;;
20986;SDS011;10652;50.306;8.570;2024-01-25T17:46:06;24.33;;;7.60;;
20986;SDS011;10652;50.306;8.570;2024-01-25T17:50:08;28.23;;;7.82;;
20986;SDS011;10652;50.306;8.570;2024-01-25T17:54:11;19.27;;;6.70;;
20986;SDS011;10652;50.306;8.570;2024-01-25T17:58:13;19.52;;;5.85;;
20986;SDS011;10652;50.306;8.570;2024-01-25T18:02:15;19.30;;;5.13;;
20986;SDS011;10652;50.306;8.570;2024-01-25T18:06:17;20.48;;;6.30;;
20986;SDS011;10652;50.306;8.570;2024-01-25T18:10:19;17.10;;;6.10;;
20986;SDS011;10652;50.306;8.570;2024-01-25T18:14:21;17.10;;;5.75;;
20986;SDS011;10652;50.306;8.570;2024-01-25T18:18:24;19.70;;;6.88;;
20986;SDS011;10652;50.306;8.570;2024-01-25T18:22:26;17.60;;;6.53;;
20986;SDS011;10652;50.306;8.570;2024-01-25T18:26:28;28.17;;;11.43;;
20986;SDS011;10652;50.306;8.570;2024-01-25T18:30:30;30.20;;;10.23;;
20986;SDS011;10652;50.306;8.570;2024-01-25T18:34:32;29.70;;;11.10;;
20986;SDS011;10652;50.306;8.570;2024-01-25T18:38:34;25.75;;;10.00;;
20986;SDS011;10652;50.306;8.570;2024-01-25T18:42:37;26.33;;;10.75;;
20986;SDS011;10652;50.306;8.570;2024-01-25T18:46:39;26.50;;;11.23;;
20986;SDS011;10652;50.306;8.570;2024-01-25T18:50:41;29.92;;;10.82;;
20986;SDS011;10652;50.306;8.570;2024-01-25T18:54:45;27.58;;;10.55;;
20986;SDS011;10652;50.306;8.570;2024-01-25T18:58:48;21.02;;;9.27;;
20986;SDS011;10652;50.306;8.570;2024-01-25T19:02:51;24.77;;;8.85;;
20986;SDS011;10652;50.306;8.570;2024-01-25T19:06:53;23.67;;;8.95;;
20986;SDS011;10652;50.306;8.570;2024-01-25T19:10:56;17.88;;;5.03;;
20986;SDS011;10652;50.306;8.570;2024-01-25T19:14:59;17.67;;;5.05;;
20986;SDS011;10652;50.306;8.570;2024-01-25T19:19:05;20.48;;;6.03;;
20986;SDS011;10652;50.306;8.570;2024-01-25T19:23:07;16.60;;;4.20;;
20986;SDS011;10652;50.306;8.570;2024-01-25T19:27:09;17.15;;;3.83;;
20986;SDS011;10652;50.306;8.570;2024-01-25T19:31:12;15.68;;;3.88;;
20986;SDS011;10652;50.306;8.570;2024-01-25T19:35:15;20.85;;;3.67;;
20986;SDS011;10652;50.306;8.570;2024-01-25T19:39:20;19.45;;;3.67;;
20986;SDS011;10652;50.306;8.570;2024-01-25T19:43:22;15.52;;;3.60;;
20986;SDS011;10652;50.306;8.570;2024-01-25T19:47:24;16.15;;;3.38;;
20986;SDS011;10652;50.306;8.570;2024-01-25T19:51:26;15.68;;;3.42;;
20986;SDS011;10652;50.306;8.570;2024-01-25T19:55:28;15.57;;;4.07;;
20986;SDS011;10652;50.306;8.570;2024-01-25T19:59:30;17.65;;;3.80;;
20986;SDS011;10652;50.306;8.570;2024-01-25T20:03:33;18.73;;;4.18;;
20986;SDS011;10652;50.306;8.570;2024-01-25T20:07:35;19.35;;;4.20;;
20986;SDS011;10652;50.306;8.570;2024-01-25T20:11:38;17.02;;;3.92;;
20986;SDS011;10652;50.306;8.570;2024-01-25T20:15:40;16.15;;;3.65;;
20986;SDS011;10652;50.306;8.570;2024-01-25T20:19:43;14.02;;;2.95;;
20986;SDS011;10652;50.306;8.570;2024-01-25T20:23:45;16.65;;;3.60;;
20986;SDS011;10652;50.306;8.570;2024-01-25T20:27:47;14.65;;;3.72;;
20986;SDS011;10652;50.306;8.570;2024-01-25T20:31:49;16.42;;;3.05;;
20986;SDS011;10652;50.306;8.570;2024-01-25T20:35:52;12.32;;;2.95;;
20986;SDS011;10652;50.306;8.570;2024-01-25T20:39:54;11.13;;;2.70;;
20986;SDS011;10652;50.306;8.570;2024-01-25T20:43:56;8.63;;;3.08;;
20986;SDS011;10652;50.306;8.570;2024-01-25T20:47:58;5.18;;;1.25;;
20986;SDS011;10652;50.306;8.570;2024-01-25T20:52:01;8.02;;;2.40;;
20986;SDS011;10652;50.306;8.570;2024-01-25T20:56:03;13.05;;;5.20;;
20986;SDS011;10652;50.306;8.570;2024-01-25T21:00:05;8.75;;;3.33;;
20986;SDS011;10652;50.306;8.570;2024-01-25T21:04:11;6.45;;;2.13;;
20986;SDS011;10652;50.306;8.570;2024-01-25T21:08:14;6.35;;;2.45;;
20986;SDS011;10652;50.306;8.570;2024-01-25T21:12:17;6.40;;;2.10;;
20986;SDS011;10652;50.306;8.570;2024-01-25T21:16:19;3.92;;;1.67;;
20986;SDS011;10652;50.306;8.570;2024-01-25T21:20:26;3.85;;;1.60;;
20986;SDS011;10652;50.306;8.570;2024-01-25T21:24:28;5.25;;;1.88;;
20986;SDS011;10652;50.306;8.570;2024-01-25T21:28:30;36.78;;;21.48;;
20986;SDS011;10652;50.306;8.570;2024-01-25T21:32:32;7.53;;;4.72;;
20986;SDS011;10652;50.306;8.570;2024-01-25T21:36:34;10.90;;;6.55;;
20986;SDS011;10652;50.306;8.570;2024-01-25T21:40:36;6.55;;;3.40;;
20986;SDS011;10652;50.306;8.570;2024-01-25T21:44:38;5.30;;;3.38;;
20986;SDS011;10652;50.306;8.570;2024-01-25T21:48:41;4.25;;;2.35;;
20986;SDS011;10652;50.306;8.570;2024-01-25T21:52:43;3.95;;;2.00;;
20986;SDS011;10652;50.306;8.570;2024-01-25T21:56:45;5.93;;;2.70;;
20986;SDS011;10652;50.306;8.570;2024-01-25T22:00:47;4.75;;;2.70;;
20986;SDS011;10652;50.306;8.570;2024-01-25T22:04:50;4.93;;;2.80;;
20986;SDS011;10652;50.306;8.570;2024-01-25T22:08:52;5.10;;;2.50;;
20986;SDS011;10652;50.306;8.570;2024-01-25T22:12:54;4.93;;;1.95;;
20986;SDS011;10652;50.306;8.570;2024-01-25T22:16:56;4.05;;;1.40;;
20986;SDS011;10652;50.306;8.570;2024-01-25T22:20:58;2.85;;;1.30;;
20986;SDS011;10652;50.306;8.570;2024-01-25T22:25:00;1.63;;;1.10;;
20986;SDS011;10652;50.306;8.570;2024-01-25T22:29:03;1.65;;;1.17;;
20986;SDS011;10652;50.306;8.570;2024-01-25T22:33:08;3.35;;;1.58;;
20986;SDS011;10652;50.306;8.570;2024-01-25T22:37:10;2.50;;;1.20;;
20986;SDS011;10652;50.306;8.570;2024-01-25T22:41:12;2.90;;;1.60;;
20986;SDS011;10652;50.306;8.570;2024-01-25T22:45:14;2.58;;;1.50;;
20986;SDS011;10652;50.306;8.570;2024-01-25T22:49:18;3.67;;;1.80;;
20986;SDS011;10652;50.306;8.570;2024-01-25T22:53:21;3.08;;;1.60;;
20986;SDS011;10652;50.306;8.570;2024-01-25T22:57:24;2.53;;;1.23;;
20986;SDS011;10652;50.306;8.570;2024-01-25T23:01:26;2.00;;;1.30;;
20986;SDS011;10652;50.306;8.570;2024-01-25T23:05:29;2.53;;;1.23;;
20986;SDS011;10652;50.306;8.570;2024-01-25T23:09:31;1.83;;;1.10;;
20986;SDS011;10652;50.306;8.570;2024-01-25T23:13:34;1.80;;;1.20;;
20986;SDS011;10652;50.306;8.570;2024-01-25T23:17:36;2.33;;;0.90;;
20986;SDS011;10652;50.306;8.570;2024-01-25T23:21:39;0.95;;;0.70;;
20986;SDS011;10652;50.306;8.570;2024-01-25T23:25:41;0.90;;;0.82;;
20986;SDS011;10652;50.306;8.570;2024-01-25T23:29:45;1.33;;;1.00;;
20986;SDS011;10652;50.306;8.570;2024-01-25T23:33:47;1.42;;;1.00;;
20986;SDS011;10652;50.306;8.570;2024-01-25T23:37:49;1.48;;;0.95;;
20986;SDS011;10652;50.306;8.570;2024-01-25T23:41:51;2.30;;;1.00;;
20986;SDS011;10652;50.306;8.570;2024-01-25T23:45:54;2.50;;;1.20;;
20986;SDS011;10652;50.306;8.570;2024-01-25T23:49:56;1.77;;;1.23;;
20986;SDS011;10652;50.306;8.570;2024-01-25T23:53:58;2.90;;;1.50;;
20986;SDS011;10652;50.306;8.570;2024-01-25T23:58:00;1.27;;;1.17;;
